Time;durP1;ratioP1;P1;durP2;ratioP2;P2;SDS_P1;SDS_P2;PMS_P1;PMS_P2;Temp;Humidity;BMP_temperature;BMP_pressure;BME280_temperature;BME280_humidity;BME280_pressure;Samples;Min_cycle;Max_cycle;Signal;HPM_P1;HPM_P2
2023/03/07 00:02:39;;;;;;;5.33;4.83;;;;;;;5.60;77.57;99457.06;6189205;28;20233;-72
2023/03/07 00:06:01;;;;;;;7.40;5.50;;;;;;;5.19;79.05;99445.75;6196669;28;20229;-73
2023/03/07 00:09:22;;;;;;;9.20;6.27;;;;;;;5.32;79.11;99443.66;6199906;28;20221;-72
2023/03/07 00:12:44;;;;;;;8.10;6.53;;;;;;;5.29;78.41;99438.59;6196898;28;20319;-72
2023/03/07 00:16:07;;;;;;;7.40;6.57;;;;;;;4.73;81.25;99430.28;6201989;28;20217;-72
2023/03/07 00:19:29;;;;;;;10.27;6.17;;;;;;;4.96;80.82;99412.22;6182001;28;20312;-72
2023/03/07 00:22:49;;;;;;;10.30;7.70;;;;;;;5.13;80.99;99412.41;6196319;28;20241;-72
2023/03/07 00:26:12;;;;;;;10.77;6.23;;;;;;;4.99;80.25;99401.25;6203142;28;20229;-72
2023/03/07 00:29:36;;;;;;;10.40;8.10;;;;;;;4.83;81.28;99396.47;6200659;28;20225;-71
2023/03/07 00:32:57;;;;;;;9.83;7.60;;;;;;;4.82;80.96;99382.25;6197674;28;20229;-73
2023/03/07 00:36:22;;;;;;;10.63;6.97;;;;;;;4.85;81.97;99371.31;6199528;28;20229;-72
2023/03/07 00:39:43;;;;;;;10.30;6.87;;;;;;;4.76;81.07;99374.81;6194438;28;20229;-72
2023/03/07 00:43:04;;;;;;;10.67;8.60;;;;;;;4.84;82.05;99374.09;6187240;28;20225;-72
2023/03/07 00:46:26;;;;;;;12.07;8.70;;;;;;;4.66;83.64;99347.25;6198750;28;20237;-71
2023/03/07 00:49:47;;;;;;;11.83;8.07;;;;;;;4.97;82.66;99341.81;6189104;28;20484;-71
2023/03/07 00:53:10;;;;;;;9.10;6.80;;;;;;;4.90;82.68;99336.22;6195927;28;20572;-71
2023/03/07 00:56:31;;;;;;;12.93;10.60;;;;;;;5.06;82.43;99324.97;6200194;28;20225;-71
2023/03/07 00:59:52;;;;;;;13.80;9.80;;;;;;;4.88;82.92;99325.66;6196091;28;20599;-70
2023/03/07 01:03:13;;;;;;;16.93;10.97;;;;;;;4.57;84.62;99325.84;6185822;28;20240;-71
2023/03/07 01:06:34;;;;;;;13.37;10.17;;;;;;;5.07;82.77;99306.13;6182089;28;20228;-71
2023/03/07 01:09:56;;;;;;;14.17;9.07;;;;;;;4.77;83.94;99299.09;6205118;28;20717;-71
2023/03/07 01:13:18;;;;;;;10.73;8.93;;;;;;;4.40;85.23;99302.53;6207401;28;20618;-71
2023/03/07 01:16:39;;;;;;;15.87;9.67;;;;;;;4.93;84.15;99289.69;6192604;28;20237;-72
2023/03/07 01:20:00;;;;;;;12.30;9.43;;;;;;;4.62;85.26;99283.59;6197712;28;21139;-72
2023/03/07 01:23:21;;;;;;;19.17;9.70;;;;;;;4.19;86.85;99281.28;6193028;28;20237;-71
2023/03/07 01:26:43;;;;;;;20.50;11.03;;;;;;;4.59;85.56;99273.22;6205487;28;20229;-71
2023/03/07 01:30:07;;;;;;;11.43;9.43;;;;;;;4.54;86.28;99265.63;6201594;28;21176;-71
2023/03/07 01:33:30;;;;;;;13.97;10.50;;;;;;;4.72;85.12;99261.28;6197562;28;20611;-70
2023/03/07 01:36:51;;;;;;;11.23;7.93;;;;;;;4.33;87.22;99248.88;6186692;28;21062;-71
2023/03/07 01:40:13;;;;;;;11.50;8.27;;;;;;;4.39;86.87;99242.13;6201033;28;20809;-70
2023/03/07 01:43:36;;;;;;;11.20;7.60;;;;;;;3.94;88.18;99241.75;6204244;28;20277;-72
2023/03/07 01:47:05;;;;;;;13.13;9.43;;;;;;;4.52;87.19;99232.91;6214459;28;20251;-71
2023/03/07 01:50:33;;;;;;;10.53;7.57;;;;;;;4.27;88.15;99227.25;6216604;28;20228;-72
2023/03/07 01:53:57;;;;;;;14.83;9.90;;;;;;;4.40;87.48;99220.66;6205310;28;20473;-71
2023/03/07 01:57:20;;;;;;;12.03;8.27;;;;;;;4.31;87.77;99212.66;6211519;28;20266;-71
2023/03/07 02:00:44;;;;;;;12.33;6.73;;;;;;;4.04;88.02;99216.81;6209134;28;20255;-72
2023/03/07 02:04:11;;;;;;;12.40;8.90;;;;;;;4.33;87.27;99200.88;6219803;28;20225;-71
2023/03/07 02:07:37;;;;;;;15.03;10.07;;;;;;;4.32;87.80;99203.69;6204413;28;20873;-72
2023/03/07 02:10:58;;;;;;;10.67;7.20;;;;;;;4.27;88.11;99189.91;6183963;28;20256;-73
2023/03/07 02:14:19;;;;;;;9.43;6.87;;;;;;;4.61;86.88;99188.53;6198850;28;20228;-72
2023/03/07 02:17:43;;;;;;;10.17;8.07;;;;;;;4.76;85.69;99168.44;6214018;28;20221;-72
2023/03/07 02:21:11;;;;;;;10.53;7.87;;;;;;;4.64;86.76;99173.09;6196624;28;20236;-72
2023/03/07 02:24:37;;;;;;;12.10;7.63;;;;;;;4.52;87.46;99176.88;6199340;28;20240;-72
2023/03/07 02:28:03;;;;;;;7.87;7.00;;;;;;;4.63;86.68;99166.06;6200449;28;20218;-72
2023/03/07 02:31:24;;;;;;;8.80;6.50;;;;;;;4.76;85.85;99160.44;6215690;28;20225;-73
2023/03/07 02:34:46;;;;;;;7.40;5.00;;;;;;;4.38;87.55;99149.78;6204542;28;20229;-73
2023/03/07 02:38:11;;;;;;;15.03;7.20;;;;;;;4.68;86.81;99139.78;6204031;28;20509;-72
2023/03/07 02:41:34;;;;;;;11.57;7.90;;;;;;;4.61;87.14;99129.84;6209344;28;20256;-71
2023/03/07 02:45:04;;;;;;;10.87;7.77;;;;;;;4.70;86.88;99145.84;6201999;28;20569;-71
2023/03/07 02:48:28;;;;;;;10.73;7.07;;;;;;;4.64;87.84;99141.06;6187551;28;20807;-71
2023/03/07 02:51:49;;;;;;;9.67;6.27;;;;;;;4.74;87.04;99133.03;6209922;28;20695;-72
2023/03/07 02:55:10;;;;;;;10.87;8.17;;;;;;;4.51;88.25;99128.97;6200675;28;20237;-71
2023/03/07 02:58:36;;;;;;;11.67;8.23;;;;;;;4.56;88.04;99148.09;6212872;28;20343;-71
2023/03/07 03:01:58;;;;;;;11.80;7.70;;;;;;;4.71;88.38;99120.81;6200075;28;20233;-71
2023/03/07 03:05:19;;;;;;;11.23;9.00;;;;;;;4.57;89.30;99112.41;6200417;28;20241;-71
2023/03/07 03:08:40;;;;;;;9.00;6.73;;;;;;;4.75;87.60;99100.88;6204548;28;20229;-71
2023/03/07 03:12:01;;;;;;;10.23;6.77;;;;;;;4.54;87.94;99100.22;6199073;28;20233;-70
2023/03/07 03:15:25;;;;;;;12.87;7.50;;;;;;;4.85;88.06;99101.72;6199298;28;21191;-71
2023/03/07 03:18:47;;;;;;;12.20;8.97;;;;;;;5.00;87.19;99091.41;6204809;28;20221;-71
2023/03/07 03:22:08;;;;;;;8.80;6.93;;;;;;;4.83;87.46;99084.16;6202612;28;20241;-71
2023/03/07 03:25:33;;;;;;;8.53;7.67;;;;;;;4.78;87.91;99075.72;6194551;28;20308;-71
2023/03/07 03:28:54;;;;;;;9.53;6.13;;;;;;;5.01;87.72;99057.53;6207136;28;20229;-72
2023/03/07 03:32:16;;;;;;;8.80;7.70;;;;;;;5.04;87.14;99059.91;6219103;28;20359;-71
2023/03/07 03:35:42;;;;;;;7.47;5.83;;;;;;;4.93;87.30;99066.28;6208730;28;20222;-71
2023/03/07 03:39:09;;;;;;;8.30;6.33;;;;;;;4.93;86.85;99070.75;6199642;28;20229;-73
2023/03/07 03:42:32;;;;;;;6.83;5.07;;;;;;;4.71;87.91;99051.44;6196949;28;20678;-74
2023/03/07 03:45:55;;;;;;;8.03;6.43;;;;;;;5.58;85.47;99057.28;6207906;28;20256;-72
2023/03/07 03:49:18;;;;;;;6.40;5.53;;;;;;;5.12;86.40;99065.34;6206947;28;20233;-71
2023/03/07 03:52:43;;;;;;;5.77;5.13;;;;;;;4.91;87.81;99057.56;6211484;28;20528;-73
2023/03/07 03:56:08;;;;;;;10.43;6.60;;;;;;;5.19;87.42;99048.63;6191614;28;20236;-70
2023/03/07 03:59:29;;;;;;;8.87;6.63;;;;;;;5.56;85.97;99043.22;6202363;28;20225;-71
2023/03/07 04:02:50;;;;;;;10.87;6.00;;;;;;;5.47;85.41;99028.91;6200997;28;20832;-71
2023/03/07 04:06:13;;;;;;;12.43;6.63;;;;;;;5.39;85.85;99042.19;6218369;28;20244;-73
2023/03/07 04:09:36;;;;;;;8.90;7.83;;;;;;;5.06;87.13;99048.09;6205243;28;20911;-74
2023/03/07 04:12:57;;;;;;;8.53;5.80;;;;;;;5.14;86.81;99034.84;6196194;28;20225;-72
2023/03/07 04:16:21;;;;;;;8.00;5.93;;;;;;;5.29;86.24;99033.38;6212373;28;20234;-71
2023/03/07 04:19:42;;;;;;;6.10;4.80;;;;;;;5.34;85.74;99022.25;6198637;28;20256;-72
2023/03/07 04:23:03;;;;;;;9.33;5.73;;;;;;;5.26;85.81;99028.31;6186823;28;20347;-72
2023/03/07 04:26:25;;;;;;;4.70;4.13;;;;;;;5.43;85.11;99010.66;6200874;28;20225;-71
2023/03/07 04:29:47;;;;;;;8.37;5.97;;;;;;;5.64;83.89;99025.44;6221069;28;20261;-71
2023/03/07 04:33:13;;;;;;;6.70;3.87;;;;;;;5.68;82.94;99004.59;6201557;28;20225;-71
2023/03/07 04:36:33;;;;;;;6.97;5.10;;;;;;;5.57;83.67;99002.97;6206237;28;20220;-72
2023/03/07 04:39:54;;;;;;;6.57;5.03;;;;;;;5.65;82.56;98996.91;6203514;28;20316;-71
2023/03/07 04:43:17;;;;;;;6.40;4.40;;;;;;;5.54;82.59;98981.06;6202904;28;20232;-71
2023/03/07 04:46:38;;;;;;;7.73;4.67;;;;;;;5.77;82.13;98987.66;6216732;28;20233;-71
2023/03/07 04:49:58;;;;;;;4.13;3.83;;;;;;;5.35;83.49;98976.69;6201778;28;20229;-72
2023/03/07 04:53:20;;;;;;;4.77;3.97;;;;;;;5.82;81.34;98963.97;6210428;28;21107;-72
2023/03/07 04:56:41;;;;;;;4.33;3.30;;;;;;;5.57;82.21;98972.72;6216828;28;20650;-73
2023/03/07 05:00:08;;;;;;;7.80;3.43;;;;;;;5.47;81.78;98975.47;6209408;28;20232;-72
2023/03/07 05:03:30;;;;;;;3.43;2.90;;;;;;;5.51;81.10;98962.66;6193270;28;20237;-72
2023/03/07 05:06:52;;;;;;;2.70;2.50;;;;;;;5.73;79.92;98953.34;6185720;28;20572;-71
2023/03/07 05:10:13;;;;;;;2.63;2.43;;;;;;;5.56;79.49;98955.03;6202012;28;20319;-70
2023/03/07 05:13:33;;;;;;;2.40;2.20;;;;;;;5.83;78.86;98965.66;6217093;28;20329;-71
2023/03/07 05:16:56;;;;;;;6.00;3.27;;;;;;;5.88;78.88;98950.03;6202322;28;20347;-71
2023/03/07 05:20:17;;;;;;;2.47;1.57;;;;;;;5.75;78.26;98946.88;6205905;28;20229;-73
2023/03/07 05:23:39;;;;;;;3.93;2.37;;;;;;;5.87;77.98;98939.47;6203348;28;20232;-72
2023/03/07 05:27:01;;;;;;;1.97;1.83;;;;;;;5.73;78.58;98942.66;6200969;28;20616;-73
2023/03/07 05:30:22;;;;;;;5.20;2.50;;;;;;;5.52;77.90;98941.16;6203551;28;20237;-72
2023/03/07 05:33:44;;;;;;;1.63;1.40;;;;;;;5.61;77.62;98955.44;6206170;28;20228;-74
2023/03/07 05:37:05;;;;;;;3.47;1.30;;;;;;;5.45;78.27;98950.75;6203554;28;20720;-73
2023/03/07 05:40:26;;;;;;;2.90;1.30;;;;;;;5.71;76.57;98947.31;6201014;28;20229;-72
2023/03/07 05:43:48;;;;;;;3.23;1.57;;;;;;;5.62;76.60;98939.22;6192846;28;20623;-73
2023/03/07 05:47:09;;;;;;;1.77;1.37;;;;;;;5.82;76.22;98942.56;6199460;28;20241;-73
2023/03/07 05:50:31;;;;;;;1.67;1.30;;;;;;;5.62;76.36;98925.03;6185691;28;20271;-71
2023/03/07 05:53:53;;;;;;;4.00;1.20;;;;;;;5.65;75.63;98932.75;6215551;28;20245;-73
2023/03/07 05:57:15;;;;;;;2.30;1.20;;;;;;;5.46;75.87;98935.56;6189874;28;20229;-73
2023/03/07 06:00:36;;;;;;;1.17;1.07;;;;;;;5.52;75.09;98934.94;6203721;28;20691;-73
2023/03/07 06:03:58;;;;;;;2.93;1.77;;;;;;;5.59;74.33;98930.69;6198186;28;20234;-73
2023/03/07 06:07:20;;;;;;;1.00;0.83;;;;;;;5.47;74.71;98924.72;6195795;28;20241;-73
2023/03/07 06:10:41;;;;;;;0.97;0.97;;;;;;;5.58;74.29;98939.69;6208517;28;20678;-73
2023/03/07 06:14:04;;;;;;;0.80;0.80;;;;;;;5.37;73.53;98920.44;6198841;28;20274;-73
2023/03/07 06:17:25;;;;;;;1.83;1.07;;;;;;;5.55;73.25;98916.78;6194397;28;20229;-72
2023/03/07 06:20:54;;;;;;;1.37;1.27;;;;;;;5.65;73.39;98922.06;6196942;28;20619;-72
2023/03/07 06:24:17;;;;;;;1.40;0.80;;;;;;;5.73;72.91;98929.28;6197010;28;20241;-74
2023/03/07 06:27:39;;;;;;;4.17;2.20;;;;;;;5.63;73.29;98929.38;6196280;28;20225;-73
2023/03/07 06:31:00;;;;;;;1.23;1.13;;;;;;;5.85;72.28;98912.06;6205070;28;20325;-73
2023/03/07 06:34:21;;;;;;;1.90;1.17;;;;;;;5.77;72.75;98933.34;6188852;28;20233;-72
2023/03/07 06:37:42;;;;;;;1.57;1.47;;;;;;;5.57;72.96;98933.50;6186248;28;20291;-75
2023/03/07 06:41:05;;;;;;;0.77;0.67;;;;;;;5.66;72.17;98939.75;6192474;28;20487;-75
2023/03/07 06:44:26;;;;;;;1.03;0.93;;;;;;;5.46;72.65;98939.09;6199599;28;20513;-75
2023/03/07 06:47:47;;;;;;;1.37;1.00;;;;;;;5.65;72.33;98932.75;6190127;28;20312;-73
2023/03/07 06:51:10;;;;;;;2.30;1.67;;;;;;;5.86;71.96;98941.28;6212824;28;20229;-69
2023/03/07 06:54:33;;;;;;;4.90;1.47;;;;;;;6.04;71.24;98919.91;6210120;28;20225;-71
2023/03/07 06:57:56;;;;;;;0.93;0.83;;;;;;;5.77;71.18;98922.66;6214313;28;20344;-68
2023/03/07 07:01:17;;;;;;;6.13;3.43;;;;;;;6.06;70.79;98918.75;6194448;28;20234;-70
2023/03/07 07:04:40;;;;;;;3.27;3.00;;;;;;;5.75;70.78;98936.19;6191595;28;20316;-69
2023/03/07 07:08:01;;;;;;;0.70;0.70;;;;;;;5.97;70.56;98941.06;6208941;28;20252;-69
2023/03/07 07:11:22;;;;;;;7.27;2.70;;;;;;;5.98;70.43;98944.59;6195261;28;20240;-71
2023/03/07 07:14:45;;;;;;;0.80;0.80;;;;;;;5.84;70.71;98939.78;6208720;28;20230;-70
2023/03/07 07:18:06;;;;;;;5.20;1.27;;;;;;;5.96;70.48;98938.56;6179802;28;20562;-72
2023/03/07 07:21:28;;;;;;;4.43;1.57;;;;;;;5.86;70.83;98952.00;6200583;28;20241;-71
2023/03/07 07:24:50;;;;;;;1.80;1.53;;;;;;;6.08;70.04;98956.03;6211482;28;20241;-72
2023/03/07 07:28:12;;;;;;;1.97;1.50;;;;;;;6.17;69.45;98939.06;6211567;28;20233;-70
2023/03/07 07:31:35;;;;;;;3.60;1.87;;;;;;;6.29;68.75;98957.38;6204858;28;20352;-69
2023/03/07 07:34:56;;;;;;;3.63;1.00;;;;;;;5.81;69.72;98954.28;6224343;28;20473;-71
2023/03/07 07:38:17;;;;;;;2.30;2.10;;;;;;;6.19;69.50;98951.28;6208434;28;20229;-69
2023/03/07 07:41:38;;;;;;;3.40;0.80;;;;;;;6.36;68.86;98954.91;6197731;28;20256;-70
2023/03/07 07:44:59;;;;;;;1.33;1.00;;;;;;;6.39;68.63;98955.44;6208139;28;20229;-70
2023/03/07 07:48:22;;;;;;;2.73;0.73;;;;;;;6.33;68.86;98955.22;6213376;28;20237;-70
2023/03/07 07:51:43;;;;;;;1.23;1.13;;;;;;;6.22;68.98;98990.25;6192807;28;20306;-73
2023/03/07 07:55:05;;;;;;;2.77;0.97;;;;;;;6.43;68.99;98975.53;6181651;28;20615;-71
2023/03/07 07:58:26;;;;;;;7.77;1.50;;;;;;;6.35;68.75;98990.69;6203374;28;20233;-70
2023/03/07 08:01:47;;;;;;;3.00;1.40;;;;;;;6.41;68.25;98965.97;6202856;28;20258;-71
2023/03/07 08:05:11;;;;;;;1.47;0.77;;;;;;;6.37;68.32;98972.63;6198783;28;20248;-70
2023/03/07 08:08:32;;;;;;;2.43;1.10;;;;;;;6.62;66.08;98968.28;6190796;28;20229;-70
2023/03/07 08:11:53;;;;;;;3.93;1.30;;;;;;;6.83;66.67;98977.63;6196147;28;20233;-70
2023/03/07 08:15:15;;;;;;;3.10;1.27;;;;;;;6.75;66.64;98964.19;6190991;28;20237;-73
2023/03/07 08:18:36;;;;;;;1.10;1.00;;;;;;;6.57;67.34;98987.50;6193555;28;20236;-70
2023/03/07 08:21:58;;;;;;;2.93;1.40;;;;;;;6.65;67.45;98981.38;6193785;28;20229;-70
2023/03/07 08:25:22;;;;;;;2.33;1.00;;;;;;;6.14;69.37;98993.69;6200678;28;20233;-71
2023/03/07 08:28:43;;;;;;;9.93;2.37;;;;;;;6.21;72.10;98993.94;6197693;28;20614;-69
2023/03/07 08:32:05;;;;;;;1.80;1.00;;;;;;;6.24;73.29;99004.31;6201587;28;20244;-71
2023/03/07 08:35:28;;;;;;;3.07;1.10;;;;;;;6.87;70.73;99002.25;6203856;28;20232;-71
2023/03/07 08:38:51;;;;;;;2.57;0.90;;;;;;;6.37;72.09;99010.94;6208034;28;20228;-69
2023/03/07 08:42:12;;;;;;;20.00;2.80;;;;;;;6.77;71.04;99009.53;6205794;28;20256;-69
2023/03/07 08:45:33;;;;;;;5.30;1.43;;;;;;;6.70;69.78;99003.13;6199382;28;20240;-68
2023/03/07 08:48:54;;;;;;;4.47;1.83;;;;;;;6.97;68.84;99011.84;6196041;28;20237;-69
2023/03/07 08:52:15;;;;;;;3.07;1.73;;;;;;;6.36;69.97;99003.91;6189319;28;20331;-72
2023/03/07 08:55:37;;;;;;;6.47;1.20;;;;;;;6.72;68.96;99001.97;6199610;28;20232;-68
2023/03/07 08:58:58;;;;;;;4.70;3.17;;;;;;;6.93;68.41;99020.34;6195813;28;20308;-68
2023/03/07 09:02:19;;;;;;;1.60;1.50;;;;;;;6.23;70.50;99029.38;6198954;28;20233;-70
2023/03/07 09:05:40;;;;;;;5.60;1.47;;;;;;;6.16;72.69;99025.63;6202324;28;20249;-69
2023/03/07 09:09:01;;;;;;;1.60;1.50;;;;;;;6.53;72.05;99055.72;6204466;28;20233;-69
2023/03/07 09:12:23;;;;;;;1.97;1.87;;;;;;;6.47;71.56;99031.44;6205739;28;20337;-69
2023/03/07 09:15:44;;;;;;;1.67;0.80;;;;;;;6.19;72.21;99041.41;6198038;28;20759;-69
2023/03/07 09:19:05;;;;;;;2.40;1.50;;;;;;;6.19;72.61;99036.91;6208799;28;20225;-70
2023/03/07 09:22:26;;;;;;;7.17;1.57;;;;;;;6.54;71.45;99048.53;6198178;28;20229;-69
2023/03/07 09:25:47;;;;;;;6.57;3.10;;;;;;;5.93;74.35;99053.84;6210060;28;20654;-73
2023/03/07 09:29:10;;;;;;;8.80;2.00;;;;;;;6.18;74.06;99043.22;6200918;28;20461;-69
2023/03/07 09:32:31;;;;;;;0.80;0.80;;;;;;;5.79;76.16;99052.50;6190367;28;20228;-70
2023/03/07 09:35:52;;;;;;;1.73;1.30;;;;;;;5.94;74.31;99058.19;6201843;28;20236;-70
2023/03/07 09:39:14;;;;;;;5.40;2.27;;;;;;;6.38;71.68;99054.63;6197229;28;20244;-70
2023/03/07 09:42:41;;;;;;;1.27;1.20;;;;;;;6.58;71.75;99071.31;6201008;28;20225;-69
2023/03/07 09:46:11;;;;;;;4.03;1.17;;;;;;;6.92;68.63;99062.38;6194725;28;20829;-69
2023/03/07 09:49:36;;;;;;;4.97;2.87;;;;;;;6.88;68.64;99055.66;6205339;28;20232;-70
2023/03/07 09:53:02;;;;;;;1.50;1.43;;;;;;;7.61;65.15;99056.88;6196356;28;20225;-69
2023/03/07 09:56:27;;;;;;;6.30;2.07;;;;;;;7.14;65.47;99059.16;6204561;28;20603;-70
2023/03/07 09:59:51;;;;;;;3.90;1.60;;;;;;;7.36;64.63;99073.84;6208237;28;20566;-71
2023/03/07 10:03:27;;;;;;;3.23;1.40;;;;;;;7.36;63.98;99070.31;6203736;28;20324;-70
2023/03/07 10:06:54;;;;;;;3.23;1.90;;;;;;;7.05;62.77;99065.47;6211834;28;20241;-71
2023/03/07 10:10:20;;;;;;;5.03;2.33;;;;;;;7.66;59.29;99067.94;6209328;28;20519;-68
2023/03/07 10:13:57;;;;;;;2.50;0.90;;;;;;;8.01;57.81;99056.13;6208342;28;20229;-71
2023/03/07 10:17:26;;;;;;;1.87;1.17;;;;;;;7.64;57.87;99061.03;6201717;28;20229;-70
2023/03/07 10:20:52;;;;;;;1.17;1.07;;;;;;;7.72;56.62;99067.28;6209188;28;20250;-71
2023/03/07 10:24:32;;;;;;;2.43;1.57;;;;;;;6.81;56.96;99068.00;6217320;28;20241;-69
2023/03/07 10:28:00;;;;;;;1.00;1.00;;;;;;;7.20;55.88;99066.56;6207302;28;20249;-70
2023/03/07 10:31:25;;;;;;;1.57;1.20;;;;;;;6.86;59.75;99103.16;6204393;28;20246;-70
2023/03/07 10:34:49;;;;;;;1.37;0.77;;;;;;;6.85;62.25;99103.31;6211655;28;20228;-68
2023/03/07 10:38:19;;;;;;;3.10;2.20;;;;;;;7.05;62.15;99094.09;6223275;28;20233;-66
2023/03/07 10:41:40;;;;;;;1.40;0.90;;;;;;;7.51;60.43;99101.72;6207027;28;20225;-70
2023/03/07 10:45:02;;;;;;;3.27;1.27;;;;;;;8.94;56.14;99098.69;6212965;28;20230;-68
2023/03/07 10:48:25;;;;;;;4.00;1.57;;;;;;;10.30;51.99;99080.38;6204782;28;20240;-69
2023/03/07 10:51:56;;;;;;;1.53;1.40;;;;;;;9.81;52.04;99089.69;6209162;28;20249;-70
2023/03/07 10:55:39;;;;;;;1.03;0.83;;;;;;;10.01;51.80;99088.25;6206684;28;20228;-71
2023/03/07 10:59:02;;;;;;;3.97;1.33;;;;;;;7.98;58.27;99092.19;6207314;28;20233;-70
2023/03/07 11:02:30;;;;;;;4.67;1.00;;;;;;;7.12;60.86;99103.19;6198392;28;20546;-71
2023/03/07 11:05:51;;;;;;;1.53;1.10;;;;;;;7.02;64.45;99110.47;6204951;28;20244;-70
2023/03/07 11:09:18;;;;;;;1.07;0.90;;;;;;;7.99;61.16;99117.16;6209123;28;20237;-71
2023/03/07 11:12:45;;;;;;;2.07;1.40;;;;;;;6.84;64.88;99113.19;6203676;28;20229;-72
2023/03/07 11:16:18;;;;;;;0.80;0.80;;;;;;;6.47;66.78;99109.06;6200011;28;20229;-70
2023/03/07 11:19:42;;;;;;;2.93;2.33;;;;;;;7.17;64.37;99131.19;6201502;28;20311;-70
2023/03/07 11:23:17;;;;;;;3.40;1.00;;;;;;;8.77;58.86;99108.59;6212903;28;20225;-70
2023/03/07 11:26:40;;;;;;;3.07;2.23;;;;;;;8.19;59.14;99109.66;6206537;28;20229;-70
2023/03/07 11:30:19;;;;;;;4.73;1.23;;;;;;;7.31;61.14;99112.84;6214161;28;20248;-71
2023/03/07 11:33:48;;;;;;;2.20;1.37;;;;;;;8.04;59.93;99106.78;6208487;28;20253;-70
2023/03/07 11:37:21;;;;;;;4.87;1.70;;;;;;;9.95;55.19;99123.97;6207270;28;20264;-70
2023/03/07 11:40:51;;;;;;;4.53;1.20;;;;;;;7.85;60.16;99120.47;6206341;28;20228;-70
2023/03/07 11:44:25;;;;;;;4.20;1.70;;;;;;;8.14;59.11;99128.09;6208580;28;20672;-71
2023/03/07 11:47:55;;;;;;;8.50;1.53;;;;;;;11.81;49.39;99122.28;6204545;28;20229;-71
2023/03/07 11:51:32;;;;;;;4.27;1.40;;;;;;;12.68;45.74;99112.31;6197779;28;20232;-70
2023/03/07 11:55:02;;;;;;;4.97;1.27;;;;;;;12.56;44.62;99116.53;6199395;28;20599;-70
2023/03/07 11:58:35;;;;;;;1.43;0.90;;;;;;;11.02;45.55;99120.22;6198010;28;20233;-69
2023/03/07 12:01:58;;;;;;;7.70;1.70;;;;;;;10.99;45.59;99133.25;6194232;28;20232;-69
2023/03/07 12:05:38;;;;;;;2.63;1.47;;;;;;;9.72;42.42;99125.72;6208075;28;20503;-69
2023/03/07 12:09:22;;;;;;;7.03;1.33;;;;;;;9.81;39.50;99135.44;6192758;28;20218;-67
2023/03/07 12:12:55;;;;;;;1.73;1.63;;;;;;;9.34;39.10;99168.53;6205004;28;20245;-68
2023/03/07 12:16:26;;;;;;;0.97;0.80;;;;;;;9.72;37.74;99150.75;6205564;28;20406;-69
2023/03/07 12:20:06;;;;;;;2.30;1.10;;;;;;;11.25;34.74;99137.19;6205261;28;20229;-68
2023/03/07 12:23:36;;;;;;;2.50;1.20;;;;;;;12.10;33.51;99137.63;6208769;28;20229;-69
2023/03/07 12:27:02;;;;;;;2.73;1.10;;;;;;;10.77;35.55;99152.94;6202058;28;20233;-69
2023/03/07 12:30:30;;;;;;;3.57;0.67;;;;;;;10.60;36.57;99137.94;6211407;28;20236;-71
2023/03/07 12:33:56;;;;;;;1.90;1.07;;;;;;;12.44;33.22;99158.63;6206990;28;20229;-68
2023/03/07 12:37:23;;;;;;;3.67;1.13;;;;;;;13.35;29.92;99153.34;6211343;28;20233;-69
2023/03/07 12:40:51;;;;;;;1.90;0.70;;;;;;;12.40;32.07;99158.16;6206558;28;20233;-69
2023/03/07 12:44:17;;;;;;;2.67;0.73;;;;;;;13.45;29.15;99162.78;6206299;28;20228;-73
2023/03/07 12:47:51;;;;;;;1.67;1.57;;;;;;;11.86;33.06;99173.03;6209900;28;20234;-70
2023/03/07 12:51:20;;;;;;;1.63;1.50;;;;;;;10.63;35.12;99175.28;6211993;28;20233;-72
2023/03/07 12:54:50;;;;;;;2.07;1.00;;;;;;;16.39;27.90;99159.00;6202930;28;20319;-68
2023/03/07 12:58:21;;;;;;;1.73;0.90;;;;;;;18.72;24.12;99153.69;6206704;28;20233;-71
2023/03/07 13:01:47;;;;;;;4.73;1.47;;;;;;;18.77;23.62;99172.13;6203815;28;20249;-72
2023/03/07 13:05:18;;;;;;;1.70;0.97;;;;;;;17.65;23.84;99167.03;6209737;28;20272;-71
2023/03/07 13:08:42;;;;;;;3.00;0.80;;;;;;;16.52;25.24;99169.88;6210566;28;20622;-72
2023/03/07 13:12:30;;;;;;;1.00;0.67;;;;;;;12.07;31.83;99183.94;6209528;28;20228;-71
2023/03/07 13:16:11;;;;;;;1.83;1.23;;;;;;;10.51;34.40;99198.25;6202083;28;20221;-73
2023/03/07 13:19:54;;;;;;;0.60;0.60;;;;;;;9.57;34.42;99199.06;6206015;28;20241;-73
2023/03/07 13:23:27;;;;;;;2.80;1.13;;;;;;;9.71;35.55;99208.28;6207408;28;20291;-71
2023/03/07 13:26:53;;;;;;;2.87;1.03;;;;;;;12.82;31.97;99197.94;6202850;28;20325;-69
2023/03/07 13:30:18;;;;;;;0.93;0.90;;;;;;;15.01;28.45;99183.59;6211511;28;20224;-72
2023/03/07 13:33:40;;;;;;;2.97;1.37;;;;;;;13.07;30.17;99187.63;6206629;28;20304;-70
2023/03/07 13:37:49;;;;;;;2.63;1.00;;;;;;;10.83;35.05;99203.44;6207906;28;20323;-72
2023/03/07 13:41:11;;;;;;;0.83;0.83;;;;;;;10.06;36.72;99210.53;6207785;28;20225;-69
2023/03/07 13:44:38;;;;;;;1.93;1.73;;;;;;;10.57;36.36;99201.09;6208488;28;20233;-70
2023/03/07 13:47:58;;;;;;;0.80;0.80;;;;;;;13.65;31.31;99206.25;6201546;28;20232;-69
2023/03/07 13:51:21;;;;;;;2.57;0.80;;;;;;;15.00;28.73;99194.63;6206728;28;20320;-71
2023/03/07 13:54:44;;;;;;;1.93;1.30;;;;;;;11.74;33.31;99212.31;6211295;28;20228;-70
2023/03/07 13:58:16;;;;;;;1.80;1.57;;;;;;;10.31;36.31;99217.53;6189466;28;20240;-69
2023/03/07 14:01:44;;;;;;;1.20;1.00;;;;;;;11.90;35.23;99204.88;6201061;28;20342;-68
2023/03/07 14:05:04;;;;;;;0.70;0.63;;;;;;;15.29;29.35;99194.25;6208236;28;20225;-71
2023/03/07 14:08:31;;;;;;;1.43;0.63;;;;;;;10.87;36.23;99207.44;6189762;28;20236;-69
2023/03/07 14:12:01;;;;;;;1.30;0.97;;;;;;;12.15;33.42;99218.09;6211113;28;20283;-69
2023/03/07 14:15:27;;;;;;;1.63;0.90;;;;;;;15.99;27.57;99199.91;6206587;28;20283;-68
2023/03/07 14:18:59;;;;;;;2.17;0.90;;;;;;;16.39;25.73;99197.94;6200603;28;20229;-68
2023/03/07 14:22:33;;;;;;;3.90;1.13;;;;;;;17.09;25.71;99209.75;6205590;28;20240;-72
2023/03/07 14:26:07;;;;;;;2.47;2.10;;;;;;;15.61;25.36;99204.34;6206067;28;20232;-71
2023/03/07 14:29:29;;;;;;;1.63;0.80;;;;;;;16.44;25.01;99205.41;6204310;28;20241;-71
2023/03/07 14:32:51;;;;;;;0.87;0.87;;;;;;;16.12;25.27;99209.09;6191454;28;20221;-70
2023/03/07 14:36:18;;;;;;;3.23;0.83;;;;;;;11.76;31.71;99223.78;6197434;28;20230;-69
2023/03/07 14:39:48;;;;;;;1.57;0.63;;;;;;;9.81;35.42;99261.91;6206262;28;20241;-70
2023/03/07 14:43:25;;;;;;;0.70;0.70;;;;;;;9.17;36.56;99244.81;6214319;28;20240;-68
2023/03/07 14:46:58;;;;;;;0.77;0.77;;;;;;;8.79;37.78;99248.97;6203594;28;20240;-70
2023/03/07 14:50:22;;;;;;;4.57;0.70;;;;;;;9.06;38.68;99245.16;6210125;28;20229;-69
2023/03/07 14:53:43;;;;;;;0.50;0.50;;;;;;;10.10;36.88;99251.41;6213169;28;20228;-70
2023/03/07 14:57:04;;;;;;;0.73;0.60;;;;;;;11.32;35.06;99234.44;6212996;28;20243;-68
2023/03/07 15:00:29;;;;;;;1.93;1.50;;;;;;;11.45;34.43;99236.53;6205376;28;20233;-70
2023/03/07 15:03:51;;;;;;;10.13;1.17;;;;;;;12.47;32.85;99233.91;6206284;28;20233;-72
2023/03/07 15:07:20;;;;;;;6.10;0.70;;;;;;;12.77;31.92;99233.66;6199595;28;20237;-68
2023/03/07 15:10:46;;;;;;;1.50;1.40;;;;;;;11.58;34.19;99242.09;6204918;28;20233;-70
2023/03/07 15:14:12;;;;;;;2.37;1.13;;;;;;;10.88;38.62;99250.44;6215262;28;20225;-70
2023/03/07 15:17:40;;;;;;;0.70;0.70;;;;;;;8.89;43.27;99256.06;6206206;28;20233;-70
2023/03/07 15:21:03;;;;;;;4.17;0.57;;;;;;;8.46;43.91;99267.84;6218140;28;20228;-70
2023/03/07 15:24:30;;;;;;;1.30;0.90;;;;;;;9.18;43.12;99265.31;6198980;28;20264;-70
2023/03/07 15:27:59;;;;;;;3.07;1.40;;;;;;;9.56;42.55;99258.41;6216910;28;20233;-69
2023/03/07 15:31:22;;;;;;;1.27;1.17;;;;;;;10.28;42.00;99263.66;6212176;28;20266;-70
2023/03/07 15:34:44;;;;;;;1.17;1.00;;;;;;;10.84;40.08;99265.28;6217061;28;20225;-69
2023/03/07 15:38:15;;;;;;;1.50;1.00;;;;;;;10.98;40.14;99269.06;6218384;28;20253;-70
2023/03/07 15:41:37;;;;;;;0.73;0.73;;;;;;;9.68;39.14;99287.50;6216680;28;20246;-70
2023/03/07 15:44:59;;;;;;;1.00;0.80;;;;;;;9.29;41.39;99308.00;6216733;28;20229;-70
2023/03/07 15:48:25;;;;;;;1.13;0.70;;;;;;;8.53;44.55;99330.66;6211034;28;20229;-69
2023/03/07 15:51:53;;;;;;;4.37;0.70;;;;;;;7.99;47.26;99327.28;6209783;28;20334;-70
2023/03/07 15:55:18;;;;;;;0.97;0.97;;;;;;;8.36;47.65;99321.69;6222483;28;20315;-70
2023/03/07 15:58:44;;;;;;;0.50;0.50;;;;;;;8.88;51.57;99326.91;6205332;28;20643;-71
2023/03/07 16:02:30;;;;;;;4.93;1.77;;;;;;;9.99;56.60;99324.50;6190210;28;20233;-72
2023/03/07 16:05:52;;;;;;;7.63;0.90;;;;;;;8.88;45.75;99326.91;6192497;28;20299;-70
2023/03/07 16:09:17;;;;;;;1.90;1.17;;;;;;;8.77;45.32;99317.31;6202230;28;20233;-70
2023/03/07 16:12:44;;;;;;;2.70;0.70;;;;;;;8.12;47.03;99332.22;6210164;28;20314;-70